Time;durP1;ratioP1;P1;durP2;ratioP2;P2;SDS_P1;SDS_P2;PMS_P1;PMS_P2;Temp;Humidity;BMP_temperature;BMP_pressure;BME280_temperature;BME280_humidity;BME280_pressure;Samples;Min_cycle;Max_cycle;Signal;HPM_P1;HPM_P2
2023/01/31 00:01:08;;;;;;;;;;;1.80;87.90;;;-151.14;100.00;62537.16;4981341;28;20325;-89
2023/01/31 00:03:36;;;;;;;;;;;1.80;88.00;;;0.34;100.00;62537.16;4981480;28;20116;-88
2023/01/31 00:06:15;;;;;;;;;;;1.80;87.90;;;-151.14;100.00;62537.16;4981484;28;20099;-89
2023/01/31 00:08:43;;;;;;;;;;;1.80;87.80;;;-151.14;100.00;62537.16;4981410;28;19921;-89
2023/01/31 00:11:13;;;;;;;;;;;1.70;87.80;;;-151.14;100.00;62537.16;4981024;28;19928;-89
2023/01/31 00:13:41;;;;;;;;;;;1.70;87.90;;;0.32;100.00;62537.16;4981313;28;19922;-88
2023/01/31 00:16:09;;;;;;;;;;;1.80;87.90;;;-151.14;100.00;62537.16;4981349;28;19928;-89
2023/01/31 00:18:37;;;;;;;;;;;1.70;87.90;;;-151.14;100.00;62537.16;4981113;28;19922;-89
2023/01/31 00:21:07;;;;;;;;;;;1.70;88.00;;;-151.14;100.00;62537.16;4980952;28;19921;-88
2023/01/31 00:23:35;;;;;;;;;;;1.80;87.90;;;-151.14;100.00;62537.16;4997410;28;19921;-89
2023/01/31 00:26:12;;;;;;;;;;;1.80;87.90;;;-151.14;100.00;62537.16;4981015;28;19921;-89
2023/01/31 00:28:40;;;;;;;;;;;1.80;88.00;;;18.12;100.00;62537.16;4997422;28;19922;-89
2023/01/31 00:31:08;;;;;;;;;;;1.80;88.00;;;-151.14;100.00;62537.16;4980711;28;20117;-88
2023/01/31 00:33:36;;;;;;;;;;;1.70;87.90;;;-151.14;100.00;62537.16;4980917;28;19921;-88
2023/01/31 00:36:05;;;;;;;;;;;1.80;87.90;;;0.34;100.00;62537.16;4980687;28;19921;-87
2023/01/31 00:38:33;;;;;;;;;;;1.80;87.90;;;-151.14;100.00;62537.16;4981004;28;19922;-88
2023/01/31 00:41:02;;;;;;;;;;;1.70;87.90;;;-151.14;100.00;62537.16;4996812;28;20117;-88
2023/01/31 00:43:32;;;;;;;;;;;1.70;88.00;;;0.33;100.00;62537.16;4996952;28;19925;-89
2023/01/31 00:46:00;;;;;;;;;;;1.70;87.90;;;-151.14;100.00;62537.16;4980704;28;19921;-88
2023/01/31 00:48:28;;;;;;;;;;;1.70;88.00;;;-151.14;100.00;62537.16;4980907;28;20117;-88
2023/01/31 00:50:55;;;;;;;;;;;1.70;87.90;;;-151.14;100.00;62537.16;4980520;28;19944;-88
2023/01/31 00:53:24;;;;;;;;;;;1.70;88.10;;;-151.14;100.00;62537.16;4980953;28;20222;-89
2023/01/31 00:55:52;;;;;;;;;;;1.70;88.00;;;-151.14;100.00;62537.16;4996920;28;19922;-88
2023/01/31 00:58:20;;;;;;;;;;;1.70;87.90;;;-151.14;100.00;62537.16;4980677;28;20124;-88
2023/01/31 01:00:49;;;;;;;;;;;1.70;88.00;;;-151.14;100.00;62537.16;4979786;28;19921;-88
2023/01/31 01:03:18;;;;;;;;;;;1.70;88.00;;;18.10;100.00;62537.16;4980151;28;19922;-88
2023/01/31 01:05:46;;;;;;;;;;;1.70;88.00;;;-151.14;100.00;62537.16;4980390;28;20211;-89
2023/01/31 01:08:14;;;;;;;;;;;1.70;87.90;;;-151.14;100.00;62537.16;4980451;28;20210;-89
2023/01/31 01:10:42;;;;;;;;;;;1.70;87.90;;;-151.14;100.00;62537.16;4980313;28;20116;-88
2023/01/31 01:13:09;;;;;;;;;;;1.70;87.90;;;-151.14;100.00;62537.16;4996644;28;19940;-87
2023/01/31 01:15:38;;;;;;;;;;;1.70;88.00;;;-151.14;100.00;62537.16;4980370;28;19922;-89
2023/01/31 01:18:07;;;;;;;;;;;1.70;87.90;;;-151.14;100.00;62537.16;4980265;28;19921;-89
2023/01/31 01:20:35;;;;;;;;;;;1.70;88.00;;;-151.14;100.00;62537.16;5012605;28;19928;-88
2023/01/31 01:23:03;;;;;;;;;;;1.70;88.80;;;-151.14;100.00;62537.16;4980203;28;19936;-89
2023/01/31 01:25:32;;;;;;;;;;;1.70;88.00;;;18.09;100.00;62537.16;4980122;28;19922;-89
2023/01/31 01:28:01;;;;;;;;;;;1.70;88.00;;;-151.14;100.00;62537.16;4996179;28;19922;-89
2023/01/31 01:30:30;;;;;;;;;;;1.70;88.00;;;0.35;100.00;62537.16;4995985;28;19925;-88
2023/01/31 01:32:58;;;;;;;;;;;1.70;88.10;;;0.32;100.00;62537.16;4980103;28;19928;-89
2023/01/31 01:35:27;;;;;;;;;;;1.70;88.10;;;0.32;100.00;62537.16;4980165;28;20121;-89
2023/01/31 01:37:56;;;;;;;;;;;1.70;88.00;;;0.31;100.00;62537.16;4996435;28;19928;-88
2023/01/31 01:40:24;;;;;;;;;;;1.70;88.00;;;-151.14;100.00;62537.16;4979890;28;19921;-88
2023/01/31 01:42:52;;;;;;;;;;;1.70;87.90;;;0.29;100.00;62537.16;4979941;28;20217;-89
2023/01/31 01:45:20;;;;;;;;;;;1.70;88.00;;;-151.14;100.00;62537.16;4979858;28;19921;-89
2023/01/31 01:47:49;;;;;;;;;;;1.70;88.00;;;18.10;100.00;62537.16;4979867;28;19922;-89
2023/01/31 01:50:20;;;;;;;;;;;1.70;87.90;;;-151.14;100.00;62537.16;4979689;28;19922;-88
2023/01/31 01:52:51;;;;;;;;;;;1.70;87.90;;;-151.14;100.00;62537.16;5012205;28;19921;-89
2023/01/31 01:55:22;;;;;;;;;;;1.70;88.00;;;-151.14;100.00;62537.16;4996026;28;19936;-88
2023/01/31 01:57:53;;;;;;;;;;;1.70;87.90;;;-151.14;100.00;62537.16;4979781;28;19922;-89
2023/01/31 02:00:22;;;;;;;;;;;1.70;87.90;;;-151.14;100.00;62537.16;4979443;28;19936;-88
2023/01/31 02:02:52;;;;;;;;;;;1.70;87.90;;;18.09;100.00;62537.16;4996115;28;19925;-89
2023/01/31 02:05:26;;;;;;;;;;;1.70;87.90;;;-151.14;100.00;62537.16;4995896;28;19921;-89
2023/01/31 02:07:55;;;;;;;;;;;1.70;88.00;;;-151.14;100.00;62537.16;4979618;28;19921;-88
2023/01/31 02:10:24;;;;;;;;;;;1.70;87.90;;;-151.14;100.00;62537.16;4979180;28;19928;-89
2023/01/31 02:12:52;;;;;;;;;;;1.70;87.90;;;-151.14;100.00;62537.16;4979254;28;19922;-89
2023/01/31 02:15:21;;;;;;;;;;;1.70;87.90;;;-151.14;100.00;62537.16;4976149;28;19921;-88
2023/01/31 02:17:49;;;;;;;;;;;1.70;87.80;;;0.30;100.00;62537.16;4976453;28;20129;-89
2023/01/31 02:20:27;;;;;;;;;;;1.70;87.90;;;-151.14;100.00;62537.16;4993315;28;19922;-89
2023/01/31 02:23:06;;;;;;;;;;;1.70;87.90;;;-151.14;100.00;62537.16;4976158;28;19922;-89
2023/01/31 02:25:54;;;;;;;;;;;1.70;87.90;;;-151.14;100.00;62537.16;4976151;28;19922;-88
2023/01/31 02:28:36;;;;;;;;;;;1.70;87.90;;;-151.14;100.00;62537.16;4960164;28;19921;-89
2023/01/31 02:31:31;;;;;;;;;;;1.70;87.80;;;-151.14;100.00;62537.16;4975599;28;19922;-88
2023/01/31 02:34:02;;;;;;;;;;;1.70;87.90;;;-151.14;100.00;62537.16;4976075;28;19928;-89
2023/01/31 02:36:34;;;;;;;;;;;1.70;87.90;;;0.32;100.00;62537.16;4975917;28;19926;-89
2023/01/31 02:39:06;;;;;;;;;;;1.70;87.90;;;-151.14;100.00;62537.16;4976047;28;19922;-89
2023/01/31 02:41:37;;;;;;;;;;;1.70;88.10;;;-151.14;100.00;62537.16;4975516;28;19922;-89
2023/01/31 02:46:55;;;;;;;;;;;1.70;87.90;;;28.66;100.00;62537.16;4975875;28;20341;-89
2023/01/31 02:49:34;;;;;;;;;;;1.70;88.00;;;-151.14;100.00;62537.16;4959894;28;20132;-89
2023/01/31 02:52:16;;;;;;;;;;;1.70;88.00;;;-151.14;100.00;62537.16;4975483;28;19922;-88
2023/01/31 02:57:48;;;;;;;;;;;1.70;87.90;;;0.29;100.00;62537.16;4975709;28;19922;-89
2023/01/31 03:00:17;;;;;;;;;;;1.70;88.00;;;-151.14;100.00;62537.16;4959357;28;19922;-88
2023/01/31 03:02:45;;;;;;;;;;;1.70;87.80;;;-151.14;100.00;62537.16;4975455;28;19928;-88
2023/01/31 03:05:16;;;;;;;;;;;1.70;88.10;;;-151.14;100.00;62537.16;4975566;28;19922;-88
2023/01/31 03:07:45;;;;;;;;;;;1.70;88.00;;;0.29;100.00;62537.16;4975582;28;19922;-88
2023/01/31 03:10:19;;;;;;;;;;;1.70;87.90;;;0.29;100.00;62537.16;4975243;28;19921;-89
2023/01/31 03:12:50;;;;;;;;;;;1.70;88.00;;;-151.14;100.00;62537.16;4975176;28;19921;-89
2023/01/31 03:17:30;;;;;;;;;;;1.70;88.00;;;-151.14;100.00;62537.16;4959428;28;19922;-89
2023/01/31 03:18:19;;;;;;;;;;;1.70;88.00;;;-151.14;100.00;62537.16;4974497;28;19937;-88
2023/01/31 03:20:53;;;;;;;;;;;1.70;88.00;;;-151.14;100.00;62537.16;4974731;28;19928;-89
2023/01/31 03:23:22;;;;;;;;;;;1.70;87.90;;;-151.14;100.00;62537.16;4975225;28;19922;-89
2023/01/31 03:25:50;;;;;;;;;;;1.70;88.00;;;-151.14;100.00;62537.16;4990891;28;20221;-88
2023/01/31 03:28:21;;;;;;;;;;;1.70;88.00;;;-151.14;100.00;62537.16;4975322;28;19928;-88
2023/01/31 03:30:51;;;;;;;;;;;1.70;88.00;;;18.09;100.00;62537.16;4959088;28;19928;-89
2023/01/31 03:33:21;;;;;;;;;;;1.70;88.20;;;0.32;100.00;62537.16;4975035;28;19928;-88
2023/01/31 03:35:56;;;;;;;;;;;1.70;88.00;;;0.31;100.00;62537.16;4975020;28;20117;-88
2023/01/31 03:38:26;;;;;;;;;;;1.70;88.00;;;-151.14;100.00;62537.16;4991416;28;19928;-88
2023/01/31 03:40:56;;;;;;;;;;;1.70;88.00;;;0.29;100.00;62537.16;4991114;28;19922;-89
2023/01/31 03:43:26;;;;;;;;;;;1.70;88.00;;;-151.14;100.00;62537.16;4974940;28;19928;-89
2023/01/31 03:45:58;;;;;;;;;;;1.70;88.10;;;-151.14;100.00;62537.16;4959022;28;19928;-88
2023/01/31 03:48:27;;;;;;;;;;;1.70;88.90;;;-151.14;100.00;62537.16;4974877;28;19944;-89
2023/01/31 03:50:57;;;;;;;;;;;1.70;88.00;;;-151.14;100.00;62537.16;4974936;28;19929;-89
2023/01/31 03:53:27;;;;;;;;;;;1.70;88.10;;;-151.14;100.00;62537.16;4974891;28;20244;-89
2023/01/31 03:55:57;;;;;;;;;;;1.70;88.00;;;-151.14;100.00;62537.16;4958807;28;20117;-89
2023/01/31 03:58:26;;;;;;;;;;;1.70;88.00;;;-151.14;100.00;62537.16;4958836;28;19922;-89
2023/01/31 04:00:54;;;;;;;;;;;1.70;88.00;;;-151.14;100.00;62537.16;4958679;28;19929;-89
2023/01/31 04:03:27;;;;;;;;;;;1.70;87.90;;;-151.14;100.00;62537.16;4958583;28;19922;-88
2023/01/31 04:05:57;;;;;;;;;;;1.70;88.00;;;-151.14;100.00;62537.16;4958968;28;20240;-89
2023/01/31 04:08:25;;;;;;;;;;;1.70;88.00;;;0.30;100.00;62537.16;4976061;28;19922;-89
2023/01/31 04:11:04;;;;;;;;;;;1.70;88.00;;;0.29;100.00;62537.16;4994192;28;19928;-88
2023/01/31 04:13:32;;;;;;;;;;;1.70;88.00;;;0.30;100.00;62537.16;4993996;28;19931;-88
2023/01/31 04:15:59;;;;;;;;;;;1.70;88.10;;;-151.14;100.00;62537.16;4994255;28;19921;-88
2023/01/31 04:18:27;;;;;;;;;;;1.70;88.00;;;-151.14;100.00;62537.16;4977917;28;19928;-89
2023/01/31 04:20:57;;;;;;;;;;;1.70;88.00;;;-151.14;100.00;62537.16;4977678;28;19921;-89
2023/01/31 04:23:25;;;;;;;;;;;1.70;88.00;;;-151.14;100.00;62537.16;4977634;28;19921;-89
2023/01/31 04:25:53;;;;;;;;;;;1.70;88.00;;;-151.14;100.00;62537.16;4977733;28;19928;-89
2023/01/31 04:28:21;;;;;;;;;;;1.70;88.90;;;-151.14;100.00;62537.16;4993829;28;19921;-89
2023/01/31 04:30:52;;;;;;;;;;;1.70;88.00;;;-151.14;100.00;62537.16;4993735;28;19956;-88
2023/01/31 04:33:20;;;;;;;;;;;1.70;88.10;;;-151.14;100.00;62537.16;4977492;28;19922;-88
2023/01/31 04:35:48;;;;;;;;;;;1.70;88.00;;;18.09;100.00;62537.16;4977802;28;19922;-89
2023/01/31 04:38:17;;;;;;;;;;;1.70;88.00;;;-151.14;100.00;62537.16;4980596;28;20128;-89
2023/01/31 04:40:45;;;;;;;;;;;1.70;87.90;;;-151.14;100.00;62537.16;4980702;28;19927;-89
2023/01/31 04:43:13;;;;;;;;;;;1.70;88.00;;;-151.14;100.00;62537.16;4996733;28;19928;-88
2023/01/31 04:45:41;;;;;;;;;;;1.70;88.00;;;-151.14;100.00;62537.16;4980753;28;19928;-89
2023/01/31 04:48:09;;;;;;;;;;;1.70;88.00;;;-151.14;100.00;62537.16;4996951;28;19921;-89
2023/01/31 04:50:38;;;;;;;;;;;1.70;88.10;;;-151.14;100.00;62537.16;4980740;28;19928;-89
2023/01/31 04:53:07;;;;;;;;;;;1.70;88.00;;;-151.14;100.00;62537.16;4980502;28;19921;-89
2023/01/31 04:55:36;;;;;;;;;;;1.70;88.00;;;-151.14;100.00;62537.16;4996891;28;19928;-88
2023/01/31 04:58:05;;;;;;;;;;;1.70;88.00;;;18.08;100.00;62537.16;4980627;28;19927;-88
2023/01/31 05:00:33;;;;;;;;;;;1.70;88.00;;;-151.14;100.00;62537.16;4980583;28;20102;-89
2023/01/31 05:03:01;;;;;;;;;;;1.70;88.00;;;-151.14;100.00;62537.16;4996965;28;20112;-89
2023/01/31 05:05:29;;;;;;;;;;;1.70;88.00;;;0.30;100.00;62537.16;4980605;28;19928;-88
2023/01/31 05:07:57;;;;;;;;;;;1.70;88.10;;;-151.14;100.00;62537.16;4996956;28;19921;-89
2023/01/31 05:10:25;;;;;;;;;;;1.70;88.30;;;-151.14;100.00;62537.16;4980487;28;19927;-89
2023/01/31 05:12:54;;;;;;;;;;;1.70;88.20;;;-151.14;100.00;62537.16;4980201;28;19926;-89
2023/01/31 05:15:22;;;;;;;;;;;1.70;88.10;;;0.33;100.00;62537.16;4980502;28;19922;-88
2023/01/31 05:17:53;;;;;;;;;;;1.70;88.00;;;-151.14;100.00;62537.16;4996454;28;19928;-89
2023/01/31 05:20:21;;;;;;;;;;;1.70;88.00;;;-151.14;100.00;62537.16;4996559;28;20206;-89
2023/01/31 05:22:52;;;;;;;;;;;1.70;88.00;;;-151.14;100.00;62537.16;4980494;28;19921;-89
2023/01/31 05:25:19;;;;;;;;;;;1.70;87.90;;;-151.14;100.00;62537.16;4980975;28;19937;-89
2023/01/31 05:27:47;;;;;;;;;;;1.70;88.00;;;18.10;100.00;62537.16;4997037;28;19921;-90
2023/01/31 05:30:17;;;;;;;;;;;1.70;88.10;;;-151.14;100.00;62537.16;4980655;28;19922;-90
2023/01/31 05:32:45;;;;;;;;;;;1.70;88.00;;;-151.14;100.00;62537.16;4980931;28;20112;-89
2023/01/31 05:35:13;;;;;;;;;;;1.70;87.80;;;-151.14;100.00;62537.16;4981014;28;19922;-90
2023/01/31 05:37:42;;;;;;;;;;;1.70;87.90;;;-151.14;100.00;62537.16;4980685;28;19928;-89
2023/01/31 05:40:11;;;;;;;;;;;1.70;87.90;;;-151.14;100.00;62537.16;5014025;28;19929;-90
2023/01/31 05:42:39;;;;;;;;;;;1.70;87.90;;;-151.14;100.00;62537.16;4980927;28;19927;-89
2023/01/31 05:45:08;;;;;;;;;;;1.70;88.00;;;-151.14;100.00;62537.16;4980580;28;19928;-90
2023/01/31 05:47:37;;;;;;;;;;;1.70;88.00;;;-151.14;100.00;62537.16;4979895;28;19927;-89
2023/01/31 05:50:06;;;;;;;;;;;1.70;88.00;;;-151.14;100.00;62537.16;4996429;28;19922;-90
2023/01/31 05:52:34;;;;;;;;;;;1.70;88.00;;;-151.14;100.00;62537.16;4996635;28;19922;-89
2023/01/31 05:55:02;;;;;;;;;;;1.70;88.00;;;-151.14;100.00;62537.16;4980716;28;19928;-89
2023/01/31 05:57:30;;;;;;;;;;;1.70;88.00;;;-151.14;100.00;62537.16;4980348;28;20225;-90
2023/01/31 05:59:59;;;;;;;;;;;1.70;88.00;;;-151.14;100.00;62537.16;4980455;28;19930;-90
2023/01/31 06:02:26;;;;;;;;;;;1.70;88.00;;;-151.14;100.00;62537.16;4980247;28;19928;-90
2023/01/31 06:04:56;;;;;;;;;;;1.70;87.90;;;-151.14;100.00;62537.16;4980599;28;19921;-90
2023/01/31 06:07:24;;;;;;;;;;;1.70;88.10;;;-151.14;100.00;62537.16;4980192;28;19922;-90
2023/01/31 06:09:52;;;;;;;;;;;1.70;88.10;;;-151.14;100.00;62537.16;4979958;28;20233;-90
2023/01/31 06:12:20;;;;;;;;;;;1.70;88.10;;;-151.14;100.00;62537.16;4996403;28;19921;-89
2023/01/31 06:14:48;;;;;;;;;;;1.70;88.10;;;-151.14;100.00;62537.16;4979818;28;19927;-90
2023/01/31 06:17:16;;;;;;;;;;;1.70;87.90;;;-151.14;100.00;62537.16;4980192;28;19936;-89
2023/01/31 06:19:44;;;;;;;;;;;1.70;88.00;;;-151.14;100.00;62537.16;4996109;28;19921;-90
2023/01/31 06:22:13;;;;;;;;;;;1.70;87.90;;;-151.14;100.00;62537.16;4980008;28;20213;-89
2023/01/31 06:24:41;;;;;;;;;;;1.70;87.90;;;-151.14;100.00;62537.16;4996419;28;19944;-89
2023/01/31 06:27:09;;;;;;;;;;;1.70;88.00;;;-151.14;100.00;62537.16;4996353;28;19921;-89
2023/01/31 06:29:37;;;;;;;;;;;1.70;88.00;;;-151.14;100.00;62537.16;4979880;28;19932;-90
2023/01/31 06:32:05;;;;;;;;;;;1.70;88.00;;;-151.14;100.00;62537.16;4979970;28;19927;-90
2023/01/31 06:34:33;;;;;;;;;;;1.70;88.00;;;0.27;100.00;62537.16;4979733;28;20124;-90
2023/01/31 06:37:01;;;;;;;;;;;1.70;87.90;;;-151.14;100.00;62537.16;4996112;28;19928;-90
2023/01/31 06:39:30;;;;;;;;;;;1.70;87.90;;;-151.14;100.00;62537.16;4979598;28;19921;-89
2023/01/31 06:41:58;;;;;;;;;;;1.70;88.00;;;-151.14;100.00;62537.16;4979525;28;19922;-89
2023/01/31 06:44:26;;;;;;;;;;;1.70;88.00;;;-151.14;100.00;62537.16;4979669;28;19921;-90
2023/01/31 06:46:54;;;;;;;;;;;1.70;87.90;;;-151.14;100.00;62537.16;4995849;28;19928;-90
2023/01/31 06:49:22;;;;;;;;;;;1.70;87.80;;;-151.14;100.00;62537.16;4995559;28;20377;-90
2023/01/31 06:51:50;;;;;;;;;;;1.70;87.90;;;-151.14;100.00;62537.16;4979605;28;19989;-90
2023/01/31 06:54:18;;;;;;;;;;;1.70;87.90;;;-151.14;100.00;62537.16;5012922;28;19928;-89
2023/01/31 06:56:47;;;;;;;;;;;1.70;87.90;;;-151.14;100.00;62537.16;4979564;28;19921;-90
2023/01/31 06:59:15;;;;;;;;;;;1.70;87.90;;;-151.14;100.00;62537.16;4978667;28;19921;-90
2023/01/31 07:01:43;;;;;;;;;;;1.70;88.00;;;-151.14;100.00;62537.16;4979228;28;19928;-89
2023/01/31 07:04:11;;;;;;;;;;;1.70;87.90;;;-151.14;100.00;62537.16;4979392;28;19928;-90
2023/01/31 07:06:39;;;;;;;;;;;1.70;87.90;;;;;;4995615;28;20160;-89
2023/01/31 07:09:07;;;;;;;;;;;1.70;88.00;;;-151.14;100.00;62537.16;4979628;28;19921;-90
2023/01/31 07:11:36;;;;;;;;;;;1.70;87.90;;;-151.14;100.00;62537.16;4979161;28;19921;-89
2023/01/31 07:14:06;;;;;;;;;;;1.70;87.90;;;-151.14;100.00;62537.16;4995504;28;19930;-89
2023/01/31 07:16:33;;;;;;;;;;;1.70;87.80;;;18.12;100.00;62537.16;4995551;28;19926;-89
2023/01/31 07:19:01;;;;;;;;;;;1.70;87.90;;;-151.14;100.00;62537.16;4979269;28;20239;-89
2023/01/31 07:21:29;;;;;;;;;;;1.70;87.90;;;-151.14;100.00;62537.16;4978593;28;20098;-90
2023/01/31 07:23:57;;;;;;;;;;;1.70;88.00;;;-151.14;100.00;62537.16;4979289;28;19921;-89
2023/01/31 07:26:25;;;;;;;;;;;1.70;87.90;;;-151.14;100.00;62537.16;4979249;28;19928;-90
2023/01/31 07:28:53;;;;;;;;;;;1.70;87.90;;;-151.14;100.00;62537.16;4995486;28;19927;-90
2023/01/31 07:31:22;;;;;;;;;;;1.70;87.90;;;-151.14;100.00;62537.16;4979002;28;19921;-90
2023/01/31 07:33:50;;;;;;;;;;;1.70;88.00;;;-151.14;100.00;62537.16;4979166;28;20213;-90
2023/01/31 07:36:25;;;;;;;;;;;1.70;87.90;;;-151.14;100.00;62537.16;4978891;28;19922;-89
2023/01/31 07:38:54;;;;;;;;;;;1.70;88.20;;;-151.14;100.00;62537.16;4978950;28;20125;-90
2023/01/31 07:41:22;;;;;;;;;;;1.70;87.90;;;60.43;100.00;62537.16;4978749;28;19922;-90
2023/01/31 07:43:50;;;;;;;;;;;1.70;88.00;;;-151.14;100.00;62537.16;4978996;28;19928;-90
2023/01/31 07:46:18;;;;;;;;;;;1.70;87.90;;;-151.14;100.00;62537.16;4995347;28;19928;-90
2023/01/31 07:48:48;;;;;;;;;;;1.70;87.90;;;-151.14;100.00;62537.16;4978923;28;19921;-89
2023/01/31 07:51:16;;;;;;;;;;;1.70;87.90;;;-151.14;100.00;62537.16;4995075;28;20291;-90
2023/01/31 07:53:43;;;;;;;;;;;1.70;87.90;;;-151.14;100.00;62537.16;4978898;28;20125;-90
2023/01/31 07:56:12;;;;;;;;;;;1.70;87.90;;;-151.14;100.00;62537.16;4978604;28;19928;-90
2023/01/31 07:58:41;;;;;;;;;;;1.70;87.90;;;-151.14;100.00;62537.16;4978875;28;20210;-90
2023/01/31 08:03:57;;;;;;;;;;;1.70;87.80;;;-151.14;100.00;62537.16;4978826;28;19921;-89
2023/01/31 08:06:25;;;;;;;;;;;1.70;87.70;;;;;;4994910;28;19921;-90
2023/01/31 08:08:53;;;;;;;;;;;1.70;87.80;;;-151.14;100.00;62537.16;4994987;28;19921;-90
2023/01/31 08:11:21;;;;;;;;;;;1.70;87.90;;;-151.14;100.00;62537.16;4980319;28;20120;-89
2023/01/31 08:13:49;;;;;;;;;;;1.70;87.70;;;-151.14;100.00;62537.16;4998033;28;19922;-90
2023/01/31 08:16:17;;;;;;;;;;;1.70;87.70;;;-151.14;100.00;62537.16;4998257;28;19922;-89
2023/01/31 08:18:45;;;;;;;;;;;1.70;87.70;;;0.35;100.00;62537.16;4982148;28;19921;-89
2023/01/31 08:21:15;;;;;;;;;;;1.80;87.70;;;-151.14;100.00;62537.16;4981734;28;20119;-90
2023/01/31 08:23:43;;;;;;;;;;;1.80;87.80;;;-151.14;100.00;62537.16;4981755;28;20098;-89
2023/01/31 08:26:12;;;;;;;;;;;1.70;87.80;;;18.08;100.00;62537.16;4998124;28;19928;-90
2023/01/31 08:28:40;;;;;;;;;;;1.80;87.80;;;-151.14;100.00;62537.16;4981884;28;19921;-89
2023/01/31 08:31:11;;;;;;;;;;;1.80;87.70;;;-151.14;100.00;62537.16;4981461;28;19922;-89
2023/01/31 08:33:39;;;;;;;;;;;1.80;87.90;;;-151.14;100.00;62537.16;4981776;28;19932;-89
2023/01/31 08:36:11;;;;;;;;;;;1.80;87.80;;;0.38;100.00;62537.16;4981535;28;19921;-90
2023/01/31 08:38:41;;;;;;;;;;;1.80;87.80;;;-151.14;100.00;62537.16;4981969;28;19921;-89
2023/01/31 08:41:09;;;;;;;;;;;1.70;87.70;;;-151.14;100.00;62537.16;4981477;28;19921;-90
2023/01/31 08:43:37;;;;;;;;;;;1.70;87.80;;;-151.14;100.00;62537.16;4981399;28;19928;-90
2023/01/31 08:46:06;;;;;;;;;;;1.70;87.80;;;-151.14;100.00;62537.16;4981484;28;19928;-89
2023/01/31 08:48:34;;;;;;;;;;;1.70;87.80;;;-151.14;100.00;62537.16;4981399;28;19929;-90
2023/01/31 08:51:02;;;;;;;;;;;1.80;87.70;;;-151.14;100.00;62537.16;4981528;28;19921;-90
2023/01/31 08:53:30;;;;;;;;;;;1.80;87.70;;;-151.14;100.00;62537.16;4997717;28;19928;-89
2023/01/31 08:56:00;;;;;;;;;;;1.70;87.80;;;-151.14;100.00;62537.16;4981367;28;19921;-89
2023/01/31 08:58:28;;;;;;;;;;;1.80;87.80;;;-151.14;100.00;62537.16;4981400;28;19929;-90
2023/01/31 09:01:01;;;;;;;;;;;1.80;87.80;;;-151.14;100.00;62537.16;4981316;28;19928;-90
2023/01/31 09:03:29;;;;;;;;;;;1.80;87.70;;;-151.14;100.00;62537.16;4981104;28;20239;-89
2023/01/31 09:05:58;;;;;;;;;;;1.80;87.80;;;-151.14;100.00;62537.16;4981287;28;20095;-89
2023/01/31 09:08:26;;;;;;;;;;;1.80;87.70;;;-151.14;100.00;62537.16;4997263;28;19921;-90
2023/01/31 09:10:54;;;;;;;;;;;1.80;87.80;;;-151.14;100.00;62537.16;4997031;28;19943;-90
2023/01/31 09:13:24;;;;;;;;;;;1.80;87.70;;;-151.14;100.00;62537.16;4981204;28;19926;-90
2023/01/31 09:15:58;;;;;;;;;;;1.80;87.70;;;-151.14;100.00;62537.16;4980959;28;19922;-90
2023/01/31 09:18:26;;;;;;;;;;;1.70;87.70;;;-151.14;100.00;62537.16;4980925;28;19928;-90
2023/01/31 09:20:54;;;;;;;;;;;1.80;87.60;;;-151.14;100.00;62537.16;4980725;28;19922;-89
2023/01/31 09:23:22;;;;;;;;;;;1.80;87.70;;;-151.14;100.00;62537.16;4996405;28;19928;-90
2023/01/31 09:25:53;;;;;;;;;;;1.70;87.70;;;18.08;100.00;62537.16;4997245;28;19928;-90
2023/01/31 09:28:21;;;;;;;;;;;1.80;87.70;;;-151.14;100.00;62537.16;4981151;28;19922;-90
2023/01/31 09:30:52;;;;;;;;;;;1.80;87.80;;;-151.14;100.00;62537.16;4980817;28;19922;-90
2023/01/31 09:33:20;;;;;;;;;;;1.80;87.80;;;-151.14;100.00;62537.16;4996991;28;20214;-90
2023/01/31 09:35:56;;;;;;;;;;;1.80;87.70;;;0.36;100.00;62537.16;4980557;28;19922;-90
2023/01/31 09:38:24;;;;;;;;;;;1.80;87.80;;;-151.14;100.00;62537.16;4997016;28;19928;-90
2023/01/31 09:40:53;;;;;;;;;;;1.80;87.70;;;-151.14;100.00;62537.16;4980791;28;19922;-90
2023/01/31 09:43:22;;;;;;;;;;;1.80;87.80;;;-151.14;100.00;62537.16;4980784;28;19921;-90
2023/01/31 09:45:52;;;;;;;;;;;1.80;87.70;;;-151.14;100.00;62537.16;4980673;28;19921;-90
2023/01/31 09:48:20;;;;;;;;;;;1.80;87.70;;;-151.14;100.00;62537.16;4996765;28;19921;-90
2023/01/31 09:50:50;;;;;;;;;;;1.80;87.70;;;-151.14;100.00;62537.16;4980310;28;19944;-90
2023/01/31 09:53:20;;;;;;;;;;;1.80;87.70;;;18.08;100.00;62537.16;4980806;28;19921;-90
2023/01/31 09:55:51;;;;;;;;;;;1.80;87.70;;;-151.14;100.00;62537.16;4996718;28;20113;-90
2023/01/31 09:58:23;;;;;;;;;;;1.80;87.60;;;18.09;100.00;62537.16;4977114;28;19944;-90
2023/01/31 10:01:00;;;;;;;;;;;1.80;87.70;;;-151.14;100.00;62537.16;4993248;28;19921;-90
2023/01/31 10:04:04;;;;;;;;;;;1.80;87.70;;;-151.14;100.00;62537.16;4988258;28;19923;-89
2023/01/31 10:06:35;;;;;;;;;;;1.80;87.60;;;-151.14;100.00;62537.16;4950554;28;19927;-89
2023/01/31 10:09:05;;;;;;;;;;;1.80;87.60;;;-151.14;100.00;62537.16;4980446;28;19928;-89
2023/01/31 10:11:35;;;;;;;;;;;1.80;87.70;;;-151.14;100.00;62537.16;4996203;28;19922;-90
2023/01/31 10:14:08;;;;;;;;;;;1.80;87.60;;;-151.14;100.00;62537.16;4980308;28;20209;-90
2023/01/31 10:16:38;;;;;;;;;;;1.80;87.60;;;-151.14;100.00;62537.16;4980340;28;19921;-90
2023/01/31 10:19:07;;;;;;;;;;;1.80;87.60;;;-151.14;100.00;62537.16;4980359;28;19922;-90
2023/01/31 10:21:38;;;;;;;;;;;1.80;87.60;;;18.08;100.00;62537.16;4979864;28;19927;-90
2023/01/31 10:24:11;;;;;;;;;;;1.80;87.60;;;-151.14;100.00;62537.16;4980345;28;19921;-89
2023/01/31 10:26:40;;;;;;;;;;;1.80;87.70;;;-151.14;100.00;62537.16;4979995;28;19936;-89
2023/01/31 10:29:12;;;;;;;;;;;1.90;87.70;;;-151.14;100.00;62537.16;4993012;28;19928;-90
2023/01/31 10:31:43;;;;;;;;;;;1.80;87.60;;;-151.14;100.00;62537.16;4960230;28;20132;-90
2023/01/31 10:34:13;;;;;;;;;;;1.90;87.70;;;-151.14;100.00;62537.16;4992789;28;20120;-90
2023/01/31 10:36:43;;;;;;;;;;;1.90;87.70;;;-151.14;100.00;62537.16;4976659;28;20235;-90
2023/01/31 10:39:14;;;;;;;;;;;1.90;87.70;;;-151.14;100.00;62537.16;4976772;28;19921;-90
2023/01/31 10:41:59;;;;;;;;;;;1.90;87.70;;;-151.14;100.00;62537.16;4976283;28;19928;-90
2023/01/31 10:44:31;;;;;;;;;;;1.80;87.40;;;-151.14;100.00;62537.16;4979792;28;19922;-89
2023/01/31 10:47:00;;;;;;;;;;;1.90;87.50;;;0.48;100.00;62537.16;4979879;28;20388;-90
2023/01/31 10:49:28;;;;;;;;;;;1.90;87.60;;;-151.14;100.00;62537.16;4979871;28;19921;-90
2023/01/31 10:52:15;;;;;;;;;;;1.90;87.70;;;-151.14;100.00;62537.16;4979650;28;19929;-89
2023/01/31 10:54:49;;;;;;;;;;;1.90;87.60;;;-151.14;100.00;62537.16;4979834;28;19928;-89
2023/01/31 10:57:18;;;;;;;;;;;1.90;87.60;;;0.52;100.00;62537.16;4979551;28;19922;-90
2023/01/31 10:59:46;;;;;;;;;;;1.90;87.60;;;-151.14;100.00;62537.16;4979467;28;19922;-90
2023/01/31 11:02:19;;;;;;;;;;;2.00;87.40;;;-151.14;100.00;62537.16;4995643;28;19928;-90
2023/01/31 11:04:49;;;;;;;;;;;2.00;87.20;;;18.24;100.00;62537.16;4979315;28;19980;-90
2023/01/31 11:07:17;;;;;;;;;;;2.00;87.30;;;-151.14;100.00;62537.16;4995452;28;19921;-90
2023/01/31 11:09:47;;;;;;;;;;;2.00;87.20;;;;;;4995191;28;19922;-89
2023/01/31 11:12:15;;;;;;;;;;;2.00;87.10;;;-151.14;100.00;62537.16;4979220;28;20117;-90
2023/01/31 11:14:45;;;;;;;;;;;2.00;87.10;;;0.59;100.00;62537.16;4979552;28;20483;-89
2023/01/31 11:17:16;;;;;;;;;;;2.00;87.10;;;0.59;100.00;62537.16;4979093;28;19927;-90
2023/01/31 11:19:46;;;;;;;;;;;2.00;87.10;;;-151.14;100.00;62537.16;4979220;28;19928;-90
2023/01/31 11:22:21;;;;;;;;;;;2.00;87.10;;;-151.14;100.00;62537.16;4978792;28;19928;-89
2023/01/31 11:24:49;;;;;;;;;;;2.00;87.10;;;-151.14;100.00;62537.16;4978843;28;19921;-90
2023/01/31 11:27:24;;;;;;;;;;;2.00;87.10;;;-151.14;100.00;62537.16;4994524;28;20252;-90